Time;durP1;ratioP1;P1;durP2;ratioP2;P2;SDS_P1;SDS_P2;PMS_P1;PMS_P2;Temp;Humidity;BMP_temperature;BMP_pressure;BME280_temperature;BME280_humidity;BME280_pressure;Samples;Min_cycle;Max_cycle;Signal;HPM_P1;HPM_P2
2021/03/11 00:00:29;;;;;;;1.77;1.67;;;5.80;98.00;;;;;;5070698;28;20518;-71
2021/03/11 00:02:56;;;;;;;1.20;1.17;;;6.00;98.00;;;;;;5068167;28;20470;-71
2021/03/11 00:05:23;;;;;;;1.80;1.40;;;6.00;98.00;;;;;;5070508;28;20484;-71
2021/03/11 00:07:50;;;;;;;1.37;1.30;;;5.90;98.00;;;;;;5068221;28;20515;-71
2021/03/11 00:10:17;;;;;;;5.23;2.33;;;6.00;98.00;;;;;;5073224;28;20460;-71
2021/03/11 00:12:44;;;;;;;1.30;1.10;;;6.00;98.00;;;;;;5073281;28;20483;-71
2021/03/11 00:15:14;;;;;;;1.30;1.23;;;5.90;98.00;;;;;;5073248;28;20463;-71
2021/03/11 00:17:42;;;;;;;1.30;1.10;;;5.90;98.00;;;;;;5073630;28;20473;-71
2021/03/11 00:20:13;;;;;;;1.20;1.10;;;5.90;98.00;;;;;;5073519;28;20461;-71
2021/03/11 00:22:39;;;;;;;1.90;1.67;;;5.90;98.00;;;;;;5074521;28;20456;-71
2021/03/11 00:25:08;;;;;;;1.30;1.20;;;5.90;98.00;;;;;;5072167;28;20454;-71
2021/03/11 00:27:36;;;;;;;2.23;1.60;;;5.90;98.00;;;;;;5074553;28;20546;-71
2021/03/11 00:30:06;;;;;;;3.10;1.87;;;6.00;97.80;;;;;;5072032;28;20466;-71
2021/03/11 00:32:32;;;;;;;1.60;1.53;;;6.00;97.90;;;;;;5073091;28;20967;-71
2021/03/11 00:35:01;;;;;;;1.90;1.80;;;6.00;98.00;;;;;;5072378;28;20467;-71
2021/03/11 00:37:29;;;;;;;1.20;1.20;;;6.00;98.00;;;;;;5074892;28;20573;-71
2021/03/11 00:39:55;;;;;;;1.90;1.37;;;6.20;98.00;;;;;;5071481;28;20468;-71
2021/03/11 00:42:23;;;;;;;1.47;1.47;;;6.30;98.00;;;;;;5074476;28;20593;-71
2021/03/11 00:44:50;;;;;;;2.00;1.63;;;6.30;98.00;;;;;;5071892;28;20493;-71
2021/03/11 00:47:17;;;;;;;4.10;1.77;;;6.20;98.00;;;;;;5073969;28;20468;-71
2021/03/11 00:49:44;;;;;;;1.60;1.40;;;6.20;98.00;;;;;;5070044;28;20507;-71
2021/03/11 00:52:12;;;;;;;2.77;2.13;;;6.20;98.00;;;;;;5073998;28;20452;-71
2021/03/11 00:54:39;;;;;;;1.77;1.27;;;6.10;98.00;;;;;;5071553;28;20463;-71
2021/03/11 00:57:06;;;;;;;1.70;1.43;;;6.20;98.00;;;;;;5074046;28;20539;-71
2021/03/11 00:59:33;;;;;;;3.13;2.23;;;6.30;98.00;;;;;;5071517;28;21063;-71
2021/03/11 01:01:59;;;;;;;6.43;2.10;;;6.20;98.00;;;;;;5073897;28;20461;-71
2021/03/11 01:04:26;;;;;;;1.20;1.20;;;6.20;98.00;;;;;;5071371;28;20500;-71
2021/03/11 01:06:53;;;;;;;1.83;1.60;;;6.10;98.00;;;;;;5073773;28;20459;-71
2021/03/11 01:09:20;;;;;;;1.80;1.53;;;6.10;98.00;;;;;;5071467;28;20454;-71
2021/03/11 01:11:47;;;;;;;2.27;1.70;;;6.20;98.00;;;;;;5073627;28;20983;-71
2021/03/11 01:14:13;;;;;;;2.53;2.33;;;6.30;98.00;;;;;;5071217;28;20484;-71
2021/03/11 01:16:40;;;;;;;2.70;2.30;;;6.30;98.00;;;;;;5073646;28;20469;-71
2021/03/11 01:19:07;;;;;;;1.83;1.80;;;6.40;98.00;;;;;;5070832;28;20937;-71
2021/03/11 01:21:33;;;;;;;1.50;1.30;;;6.60;92.30;;;;;;5073213;28;20458;-71
2021/03/11 01:24:00;;;;;;;2.57;1.70;;;6.90;91.40;;;;;;5069735;28;20874;-71
2021/03/11 01:26:27;;;;;;;2.23;1.60;;;7.10;90.20;;;;;;5073750;28;20552;-71
2021/03/11 01:28:54;;;;;;;1.30;1.20;;;7.40;88.70;;;;;;5071114;28;20484;-71
2021/03/11 01:31:20;;;;;;;1.20;1.10;;;7.50;90.20;;;;;;5072105;28;20456;-71
2021/03/11 01:33:47;;;;;;;1.70;1.50;;;7.70;89.50;;;;;;5071172;28;20485;-71
2021/03/11 01:36:13;;;;;;;1.63;1.27;;;7.70;90.20;;;;;;5073663;28;20544;-71
2021/03/11 01:38:40;;;;;;;1.30;1.30;;;7.80;89.80;;;;;;5070935;28;20517;-71
2021/03/11 01:41:06;;;;;;;1.97;1.57;;;7.90;90.00;;;;;;5073698;28;20871;-71
2021/03/11 01:43:34;;;;;;;2.70;1.70;;;8.00;90.50;;;;;;5069750;28;20463;-71
2021/03/11 01:46:00;;;;;;;2.80;1.77;;;8.00;90.10;;;;;;5073392;28;20454;-72
2021/03/11 01:48:27;;;;;;;1.30;1.20;;;8.10;91.00;;;;;;5071242;28;20462;-71
2021/03/11 01:50:53;;;;;;;1.20;1.00;;;8.10;90.40;;;;;;5073233;28;20835;-71
2021/03/11 01:53:20;;;;;;;5.10;2.20;;;8.20;89.90;;;;;;5069704;28;20493;-71
2021/03/11 01:55:46;;;;;;;1.90;1.63;;;8.20;91.60;;;;;;5073152;28;20956;-71
2021/03/11 01:58:13;;;;;;;1.20;1.10;;;8.20;91.80;;;;;;5071025;28;20472;-71
2021/03/11 02:00:41;;;;;;;1.80;1.63;;;8.10;91.50;;;;;;5072929;28;20513;-72
2021/03/11 02:03:07;;;;;;;5.10;2.47;;;8.20;93.10;;;;;;5070571;28;20462;-72
2021/03/11 02:05:35;;;;;;;2.70;1.73;;;8.30;90.20;;;;;;5072850;28;20499;-72
2021/03/11 02:08:01;;;;;;;1.50;1.30;;;8.30;90.80;;;;;;5070639;28;20457;-72
2021/03/11 02:10:28;;;;;;;2.00;1.70;;;8.30;89.20;;;;;;5072762;28;20466;-71
2021/03/11 02:13:10;;;;;;;1.60;1.50;;;8.40;88.80;;;;;;5071229;28;20525;-72
2021/03/11 02:15:41;;;;;;;1.20;1.10;;;8.30;90.20;;;;;;5071364;28;20465;-72
2021/03/11 02:18:13;;;;;;;1.80;1.47;;;8.40;90.40;;;;;;5070419;28;20464;-72
2021/03/11 02:21:02;;;;;;;1.23;1.17;;;8.30;91.50;;;;;;5072409;28;20486;-71
2021/03/11 02:24:04;;;;;;;1.73;1.20;;;8.40;90.50;;;;;;5066820;28;20464;-71
2021/03/11 02:26:55;;;;;;;3.10;1.67;;;8.30;91.20;;;;;;5072200;28;20840;-72
2021/03/11 02:29:27;;;;;;;1.70;1.20;;;8.30;91.60;;;;;;5069899;28;20997;-72
2021/03/11 02:31:57;;;;;;;1.77;1.47;;;8.20;91.20;;;;;;5071212;28;20498;-72
2021/03/11 02:34:26;;;;;;;2.67;1.13;;;8.20;91.10;;;;;;5069857;28;20483;-71
2021/03/11 02:36:56;;;;;;;1.20;1.00;;;8.20;90.80;;;;;;5070873;28;20550;-72
2021/03/11 02:39:26;;;;;;;1.57;1.30;;;8.20;90.70;;;;;;5069889;28;20460;-72
2021/03/11 02:41:55;;;;;;;1.50;1.43;;;8.20;91.20;;;;;;5071893;28;20454;-71
2021/03/11 02:44:24;;;;;;;1.80;1.50;;;8.10;91.70;;;;;;5069782;28;20460;-71
2021/03/11 02:46:52;;;;;;;1.30;1.10;;;8.10;92.00;;;;;;5071587;28;20468;-71
2021/03/11 02:49:21;;;;;;;1.93;1.37;;;8.00;94.60;;;;;;5069707;28;20466;-71
2021/03/11 02:51:48;;;;;;;2.03;1.67;;;8.00;91.50;;;;;;5071839;28;20500;-71
2021/03/11 02:54:16;;;;;;;2.20;1.40;;;8.10;92.00;;;;;;5069746;28;20487;-72
2021/03/11 02:56:46;;;;;;;1.20;1.20;;;8.10;92.90;;;;;;5071730;28;20459;-71
2021/03/11 02:59:15;;;;;;;1.50;1.40;;;8.00;93.10;;;;;;5069667;28;20461;-72
2021/03/11 03:01:42;;;;;;;2.73;1.50;;;8.00;93.40;;;;;;5071734;28;20467;-72
2021/03/11 03:04:12;;;;;;;1.20;1.00;;;8.00;92.90;;;;;;5069660;28;20491;-72
2021/03/11 03:06:40;;;;;;;1.20;1.00;;;7.90;94.90;;;;;;5070824;28;20466;-72
2021/03/11 03:09:09;;;;;;;3.83;1.90;;;7.90;94.70;;;;;;5069591;28;20456;-72
2021/03/11 03:11:37;;;;;;;1.30;1.20;;;7.80;95.20;;;;;;5071805;28;20454;-72
2021/03/11 03:14:06;;;;;;;1.30;1.20;;;7.80;95.40;;;;;;5069388;28;20479;-71
2021/03/11 03:16:33;;;;;;;2.07;1.40;;;7.70;96.80;;;;;;5071724;28;20462;-72
2021/03/11 03:19:01;;;;;;;1.30;1.10;;;7.70;94.80;;;;;;5069391;28;20512;-72
2021/03/11 03:21:28;;;;;;;1.97;1.47;;;7.80;94.20;;;;;;5071521;28;20516;-72
2021/03/11 03:23:56;;;;;;;1.20;1.00;;;7.80;96.60;;;;;;5069213;28;20543;-72
2021/03/11 03:26:22;;;;;;;1.83;1.77;;;7.70;97.70;;;;;;5071535;28;20486;-72
2021/03/11 03:28:49;;;;;;;1.50;1.40;;;7.60;97.40;;;;;;5069286;28;20454;-72
2021/03/11 03:31:16;;;;;;;1.90;1.43;;;7.60;96.10;;;;;;5071411;28;20467;-72
2021/03/11 03:33:42;;;;;;;1.50;1.20;;;7.60;96.60;;;;;;5068102;28;20484;-72
2021/03/11 03:36:10;;;;;;;1.77;1.30;;;7.60;96.90;;;;;;5071244;28;20509;-71
2021/03/11 03:38:37;;;;;;;1.30;1.30;;;7.60;97.10;;;;;;5069193;28;20459;-72
2021/03/11 03:41:04;;;;;;;1.70;1.60;;;7.60;96.50;;;;;;5071284;28;20462;-72
2021/03/11 03:43:32;;;;;;;3.17;1.40;;;7.60;97.50;;;;;;5068986;28;20483;-71
2021/03/11 03:46:03;;;;;;;1.40;1.30;;;7.70;98.00;;;;;;5070842;28;20458;-72
2021/03/11 03:48:37;;;;;;;1.37;1.33;;;7.90;96.60;;;;;;5067720;28;20455;-72
2021/03/11 03:51:05;;;;;;;1.20;1.10;;;7.90;95.90;;;;;;5069686;28;20455;-72
2021/03/11 03:53:39;;;;;;;1.30;1.30;;;7.90;97.30;;;;;;5068779;28;20482;-72
2021/03/11 03:56:12;;;;;;;1.50;1.30;;;7.90;98.00;;;;;;5070946;28;20521;-72
2021/03/11 03:58:41;;;;;;;2.27;1.30;;;8.00;98.00;;;;;;5068809;28;20511;-71
2021/03/11 04:01:08;;;;;;;1.20;1.10;;;7.90;98.00;;;;;;5069800;28;20463;-71
2021/03/11 04:03:36;;;;;;;1.20;1.00;;;7.80;98.00;;;;;;5067247;28;20457;-71
2021/03/11 04:06:04;;;;;;;1.20;1.20;;;7.70;98.00;;;;;;5070577;28;20458;-71
2021/03/11 04:08:34;;;;;;;1.20;1.00;;;7.70;98.00;;;;;;5068772;28;20460;-71
2021/03/11 04:11:01;;;;;;;1.20;1.20;;;7.60;98.00;;;;;;5070693;28;20523;-72
2021/03/11 04:13:28;;;;;;;1.20;1.10;;;7.60;98.00;;;;;;5068472;28;20489;-71
2021/03/11 04:15:55;;;;;;;2.30;1.63;;;7.60;96.60;;;;;;5070926;28;20587;-72
2021/03/11 04:18:22;;;;;;;1.43;1.40;;;7.70;98.00;;;;;;5068605;28;20468;-72
2021/03/11 04:20:50;;;;;;;1.23;1.03;;;7.60;98.00;;;;;;5070944;28;20533;-72
2021/03/11 04:23:17;;;;;;;1.30;1.10;;;7.60;98.00;;;;;;5068316;28;20477;-72
2021/03/11 04:25:44;;;;;;;2.40;1.30;;;7.60;98.00;;;;;;5070624;28;21097;-72
2021/03/11 04:28:12;;;;;;;1.20;1.00;;;7.80;95.10;;;;;;5068697;28;20868;-72
2021/03/11 04:30:40;;;;;;;1.57;1.30;;;7.90;95.30;;;;;;5070952;28;20483;-71
2021/03/11 04:33:07;;;;;;;2.30;1.40;;;8.00;95.10;;;;;;5070404;28;20487;-72
2021/03/11 04:35:34;;;;;;;2.10;1.40;;;8.10;92.60;;;;;;5069787;28;20455;-72
2021/03/11 04:38:00;;;;;;;1.20;1.10;;;8.20;93.10;;;;;;5069581;28;20485;-72
2021/03/11 04:40:27;;;;;;;1.40;1.10;;;8.30;93.00;;;;;;5067150;28;20459;-72
2021/03/11 04:42:59;;;;;;;1.27;1.23;;;8.30;92.80;;;;;;5070926;28;20491;-72
2021/03/11 04:45:26;;;;;;;1.20;1.20;;;8.40;91.90;;;;;;5068493;28;20457;-72
2021/03/11 04:47:53;;;;;;;1.40;1.30;;;8.50;91.60;;;;;;5070717;28;20471;-72
2021/03/11 04:50:20;;;;;;;1.40;1.07;;;8.70;90.90;;;;;;5068287;28;20477;-71
2021/03/11 04:52:48;;;;;;;3.53;1.83;;;8.80;90.50;;;;;;5070625;28;20482;-72
2021/03/11 04:55:15;;;;;;;1.20;1.00;;;8.90;91.30;;;;;;5069187;28;20479;-72
2021/03/11 04:57:42;;;;;;;2.13;1.97;;;9.00;91.20;;;;;;5074205;28;20520;-72
2021/03/11 05:00:14;;;;;;;1.30;1.00;;;9.10;91.20;;;;;;5070423;28;20461;-71
2021/03/11 05:02:45;;;;;;;1.67;1.43;;;9.20;91.30;;;;;;5074080;28;20517;-72
2021/03/11 05:05:13;;;;;;;2.07;1.17;;;9.20;90.90;;;;;;5071461;28;20831;-71
2021/03/11 05:07:41;;;;;;;1.20;1.10;;;9.30;91.80;;;;;;5073951;28;20458;-71
2021/03/11 05:10:08;;;;;;;1.20;1.00;;;9.20;92.90;;;;;;5071613;28;20459;-71
2021/03/11 05:12:37;;;;;;;1.20;1.00;;;9.20;93.20;;;;;;5073791;28;20468;-72
2021/03/11 05:15:04;;;;;;;1.20;1.00;;;9.20;93.40;;;;;;5070075;28;20549;-72
2021/03/11 05:17:32;;;;;;;1.30;1.20;;;9.20;94.10;;;;;;5073491;28;21362;-71
2021/03/11 05:19:58;;;;;;;1.33;1.30;;;9.20;93.70;;;;;;5071316;28;20492;-71
2021/03/11 05:22:26;;;;;;;1.50;1.20;;;9.20;94.60;;;;;;5073599;28;20481;-72
2021/03/11 05:24:53;;;;;;;1.60;1.37;;;9.20;94.00;;;;;;5069702;28;20944;-72
2021/03/11 05:27:22;;;;;;;1.20;1.00;;;9.20;93.80;;;;;;5073393;28;20509;-72
2021/03/11 05:29:50;;;;;;;1.20;0.97;;;9.20;94.10;;;;;;5069613;28;20460;-72
2021/03/11 05:32:18;;;;;;;1.20;1.00;;;9.20;93.70;;;;;;5073013;28;21079;-72
2021/03/11 05:34:46;;;;;;;1.20;0.90;;;9.20;93.70;;;;;;5069795;28;20457;-72
2021/03/11 05:37:14;;;;;;;1.30;1.10;;;9.30;93.00;;;;;;5073337;28;20491;-72
2021/03/11 05:39:41;;;;;;;2.03;1.20;;;9.40;92.30;;;;;;5053119;28;20466;-72
2021/03/11 05:42:13;;;;;;;1.20;1.00;;;9.30;91.80;;;;;;5073482;28;20958;-72
2021/03/11 05:44:41;;;;;;;1.30;1.10;;;9.40;92.00;;;;;;5071198;28;20466;-72
2021/03/11 05:47:09;;;;;;;1.77;1.00;;;9.40;91.90;;;;;;5073152;28;20990;-72
2021/03/11 05:49:36;;;;;;;1.20;1.00;;;9.50;92.20;;;;;;5071264;28;20442;-72
2021/03/11 05:52:04;;;;;;;3.27;1.43;;;9.50;91.80;;;;;;5073085;28;20458;-72
2021/03/11 05:54:31;;;;;;;1.70;1.23;;;9.50;92.70;;;;;;5070413;28;21018;-72
2021/03/11 05:56:58;;;;;;;1.40;1.00;;;9.50;92.50;;;;;;5073181;28;20483;-72
2021/03/11 05:59:25;;;;;;;1.60;1.43;;;9.50;93.00;;;;;;5069046;28;21112;-72
2021/03/11 06:01:53;;;;;;;1.40;1.20;;;9.60;93.10;;;;;;5072857;28;20462;-72
2021/03/11 06:04:20;;;;;;;1.20;1.00;;;9.60;93.60;;;;;;5069838;28;20844;-72
2021/03/11 06:06:50;;;;;;;1.30;1.00;;;9.70;94.10;;;;;;5072750;28;20493;-72
2021/03/11 06:09:18;;;;;;;1.30;1.17;;;9.70;94.10;;;;;;5069887;28;20462;-72
2021/03/11 06:11:49;;;;;;;1.20;0.90;;;9.80;94.20;;;;;;5072669;28;20466;-72
2021/03/11 06:14:16;;;;;;;1.20;1.00;;;9.80;94.20;;;;;;5068595;28;20529;-73
2021/03/11 06:16:50;;;;;;;1.20;1.00;;;9.90;94.60;;;;;;5072157;28;21188;-73
2021/03/11 06:19:17;;;;;;;1.53;1.40;;;9.90;95.00;;;;;;5069913;28;20488;-73
2021/03/11 06:21:45;;;;;;;1.30;1.10;;;9.90;95.30;;;;;;5072501;28;20490;-72
2021/03/11 06:24:12;;;;;;;2.63;1.30;;;9.90;95.50;;;;;;5069820;28;20887;-73
2021/03/11 06:26:40;;;;;;;2.10;1.70;;;10.00;95.70;;;;;;5072360;28;20903;-74
2021/03/11 06:29:06;;;;;;;1.20;0.90;;;10.00;95.90;;;;;;5069889;28;20526;-72
2021/03/11 06:31:34;;;;;;;1.20;1.00;;;10.10;95.40;;;;;;5072221;28;20468;-73
2021/03/11 06:34:02;;;;;;;1.20;1.00;;;10.20;95.40;;;;;;5068598;28;20532;-73
2021/03/11 06:36:31;;;;;;;1.20;1.00;;;10.20;95.20;;;;;;5072005;28;20463;-73
2021/03/11 06:38:58;;;;;;;1.20;1.00;;;10.20;95.40;;;;;;5069952;28;20469;-73
2021/03/11 06:41:25;;;;;;;1.20;0.90;;;10.20;95.20;;;;;;5072102;28;20463;-73
2021/03/11 06:43:57;;;;;;;1.30;1.07;;;10.20;95.10;;;;;;5068560;28;20460;-73
2021/03/11 06:46:26;;;;;;;2.90;1.57;;;10.30;95.20;;;;;;5072101;28;20947;-73
2021/03/11 06:49:06;;;;;;;1.20;1.00;;;10.30;94.90;;;;;;5069979;28;20468;-74
2021/03/11 06:51:32;;;;;;;1.20;1.00;;;10.30;94.90;;;;;;5072184;28;20460;-74
2021/03/11 06:54:00;;;;;;;1.87;1.43;;;10.40;94.60;;;;;;5069758;28;20492;-75
2021/03/11 06:56:27;;;;;;;1.50;1.47;;;10.40;94.80;;;;;;5071936;28;20467;-75
2021/03/11 06:59:00;;;;;;;1.20;1.10;;;10.40;94.70;;;;;;5069500;28;20453;-74
2021/03/11 07:01:29;;;;;;;3.03;1.20;;;10.40;94.80;;;;;;5071696;28;20457;-74
2021/03/11 07:03:57;;;;;;;1.20;1.00;;;10.40;94.80;;;;;;5069636;28;20587;-75
2021/03/11 07:06:33;;;;;;;1.40;1.00;;;10.40;94.90;;;;;;5071642;28;20515;-75
2021/03/11 07:09:00;;;;;;;1.30;1.10;;;10.60;94.60;;;;;;5069429;28;20460;-74
2021/03/11 07:11:28;;;;;;;1.20;1.00;;;10.60;94.40;;;;;;5071534;28;20452;-74
2021/03/11 07:13:55;;;;;;;1.20;0.90;;;10.60;94.40;;;;;;5069382;28;20484;-76
2021/03/11 07:16:25;;;;;;;2.50;1.30;;;10.60;95.00;;;;;;5071493;28;20950;-75
2021/03/11 07:19:13;;;;;;;1.20;1.00;;;10.60;94.70;;;;;;5068904;28;20482;-75
2021/03/11 07:21:42;;;;;;;1.30;1.10;;;10.60;94.60;;;;;;5071273;28;20471;-75
2021/03/11 07:24:09;;;;;;;2.07;1.47;;;10.70;94.90;;;;;;5069236;28;20449;-75
2021/03/11 07:26:36;;;;;;;1.30;1.10;;;10.70;94.90;;;;;;5071231;28;20507;-75
2021/03/11 07:29:18;;;;;;;1.20;1.00;;;10.60;95.70;;;;;;5069142;28;20465;-75
2021/03/11 07:31:53;;;;;;;1.30;1.10;;;10.60;95.90;;;;;;5071209;28;20456;-75
2021/03/11 07:34:25;;;;;;;1.20;1.10;;;10.60;95.20;;;;;;5067798;28;20583;-76
2021/03/11 07:36:57;;;;;;;1.20;1.00;;;10.60;95.20;;;;;;5071138;28;20465;-75
2021/03/11 07:39:27;;;;;;;1.30;1.10;;;10.70;95.10;;;;;;5068882;28;20448;-75
2021/03/11 07:41:55;;;;;;;2.93;1.50;;;10.80;95.30;;;;;;5071227;28;20816;-75
2021/03/11 07:44:22;;;;;;;1.20;1.07;;;10.80;94.90;;;;;;5068913;28;20459;-74
2021/03/11 07:46:51;;;;;;;1.20;1.00;;;10.80;94.80;;;;;;5070922;28;20465;-74
2021/03/11 07:49:18;;;;;;;1.20;1.00;;;10.90;94.50;;;;;;5068801;28;20600;-75
2021/03/11 07:51:45;;;;;;;1.40;1.27;;;10.90;94.80;;;;;;5071014;28;20471;-75
2021/03/11 07:54:12;;;;;;;1.20;0.90;;;11.00;94.30;;;;;;5068571;28;20485;-75
2021/03/11 07:56:39;;;;;;;1.20;1.00;;;11.10;94.80;;;;;;5071073;28;20499;-75
2021/03/11 07:59:09;;;;;;;1.20;1.00;;;11.10;94.10;;;;;;5067620;28;20469;-74
2021/03/11 08:01:46;;;;;;;1.20;1.00;;;11.20;94.00;;;;;;5071403;28;20589;-75
2021/03/11 08:04:18;;;;;;;1.20;1.00;;;11.30;93.80;;;;;;5068689;28;21088;-74
2021/03/11 08:06:44;;;;;;;1.40;1.17;;;11.40;93.90;;;;;;5070581;28;21016;-75
2021/03/11 08:09:11;;;;;;;1.20;1.10;;;11.40;93.00;;;;;;5068043;28;20462;-73
2021/03/11 08:11:39;;;;;;;1.20;0.93;;;11.50;92.80;;;;;;5070722;28;20964;-73
2021/03/11 08:14:19;;;;;;;1.20;1.00;;;11.60;93.00;;;;;;5068160;28;20487;-74
2021/03/11 08:16:46;;;;;;;1.20;1.00;;;11.60;93.10;;;;;;5070710;28;20453;-74
2021/03/11 08:19:49;;;;;;;1.20;0.90;;;11.70;93.00;;;;;;5067964;28;20535;-72
2021/03/11 08:22:36;;;;;;;1.20;0.90;;;11.80;93.00;;;;;;5070458;28;20942;-75
2021/03/11 08:25:02;;;;;;;1.30;1.10;;;11.90;93.10;;;;;;5067926;28;20452;-71
2021/03/11 08:27:42;;;;;;;1.30;1.10;;;11.90;91.50;;;;;;5070485;28;20711;-76
2021/03/11 08:30:49;;;;;;;1.20;1.00;;;12.00;92.40;;;;;;5068217;28;20461;-73
2021/03/11 08:33:50;;;;;;;1.40;1.27;;;12.10;91.40;;;;;;5074163;28;20485;-72
2021/03/11 08:36:38;;;;;;;1.20;1.00;;;12.10;91.10;;;;;;5073763;28;20535;-74
2021/03/11 08:39:27;;;;;;;1.20;1.00;;;12.30;91.20;;;;;;5071370;28;20536;-74
2021/03/11 08:41:55;;;;;;;1.20;1.07;;;12.40;90.60;;;;;;5073173;28;20512;-74
2021/03/11 08:44:43;;;;;;;1.67;1.10;;;12.40;90.50;;;;;;5053218;28;20458;-75
2021/03/11 08:47:12;;;;;;;1.20;1.00;;;12.50;90.40;;;;;;5073160;28;20476;-74
2021/03/11 08:49:45;;;;;;;1.20;1.00;;;12.50;90.00;;;;;;5070675;28;20508;-70
2021/03/11 08:52:41;;;;;;;1.20;1.20;;;12.50;89.90;;;;;;5062919;28;20474;-75
2021/03/11 08:55:31;;;;;;;1.20;1.00;;;12.50;90.10;;;;;;5051806;28;20498;-74
2021/03/11 08:57:58;;;;;;;1.20;1.10;;;12.60;89.50;;;;;;5053105;28;20517;-76
2021/03/11 09:00:53;;;;;;;3.27;1.27;;;12.60;89.10;;;;;;5051028;28;20456;-74
2021/03/11 09:03:40;;;;;;;1.20;0.90;;;12.70;89.00;;;;;;5051587;28;20981;-75
2021/03/11 09:06:08;;;;;;;1.47;1.20;;;12.80;89.80;;;;;;5052923;28;20798;-71
2021/03/11 09:08:37;;;;;;;1.20;1.00;;;12.90;89.30;;;;;;5052429;28;20457;-73
2021/03/11 09:11:08;;;;;;;1.50;1.20;;;12.90;88.90;;;;;;5052640;28;20493;-74
2021/03/11 09:13:35;;;;;;;1.30;1.10;;;13.00;88.70;;;;;;5052148;28;20550;-73
2021/03/11 09:16:02;;;;;;;1.30;1.10;;;13.10;88.70;;;;;;5051658;28;20472;-74
2021/03/11 09:18:29;;;;;;;1.20;1.00;;;13.20;88.40;;;;;;5051347;28;20459;-74
2021/03/11 09:20:58;;;;;;;1.30;1.10;;;13.20;88.80;;;;;;5050528;28;20562;-73
2021/03/11 09:23:38;;;;;;;1.20;1.00;;;13.30;89.00;;;;;;5051045;28;20541;-74
2021/03/11 09:26:05;;;;;;;1.20;1.00;;;13.30;89.20;;;;;;5050420;28;20449;-75
2021/03/11 09:28:33;;;;;;;1.20;1.00;;;13.30;89.40;;;;;;5052342;28;20491;-72
2021/03/11 09:31:00;;;;;;;1.20;1.03;;;13.30;89.30;;;;;;5050175;28;20863;-72
2021/03/11 09:33:27;;;;;;;1.20;1.00;;;13.20;89.90;;;;;;5052348;28;20553;-73
2021/03/11 09:35:54;;;;;;;1.30;1.07;;;13.30;90.20;;;;;;5050429;28;20461;-73
2021/03/11 09:38:22;;;;;;;1.20;1.03;;;13.20;90.00;;;;;;5052123;28;20569;-70
2021/03/11 09:40:52;;;;;;;1.20;1.00;;;13.20;90.60;;;;;;5048426;28;20832;-73
2021/03/11 09:43:26;;;;;;;1.20;1.00;;;13.20;90.50;;;;;;5052238;28;20453;-72
2021/03/11 09:45:56;;;;;;;1.60;1.10;;;13.30;90.30;;;;;;5050353;28;20453;-76
2021/03/11 09:48:27;;;;;;;1.90;1.73;;;13.30;90.00;;;;;;5052496;28;20468;-72
2021/03/11 09:50:57;;;;;;;1.20;0.97;;;13.30;90.20;;;;;;5049975;28;20459;-74
2021/03/11 09:53:25;;;;;;;1.20;0.90;;;13.40;90.50;;;;;;5051086;28;20498;-74
2021/03/11 09:55:55;;;;;;;1.20;1.00;;;13.40;90.50;;;;;;5050664;28;20530;-74
2021/03/11 09:58:22;;;;;;;1.50;1.10;;;13.50;90.00;;;;;;5052395;28;20463;-75
2021/03/11 10:00:50;;;;;;;1.20;0.90;;;13.60;90.30;;;;;;5050405;28;20507;-73
2021/03/11 10:03:19;;;;;;;1.20;0.90;;;13.70;89.40;;;;;;5052316;28;20470;-74
2021/03/11 10:05:50;;;;;;;1.20;1.10;;;13.80;89.30;;;;;;5050547;28;20955;-74
2021/03/11 10:08:34;;;;;;;1.20;1.00;;;13.80;89.20;;;;;;5052423;28;20952;-72
2021/03/11 10:11:11;;;;;;;1.33;1.10;;;13.80;88.50;;;;;;5050109;28;20506;-73
2021/03/11 10:13:49;;;;;;;1.20;1.20;;;13.80;88.90;;;;;;5052137;28;20541;-74
2021/03/11 10:16:19;;;;;;;1.20;1.10;;;13.80;89.50;;;;;;5052254;28;20499;-75
2021/03/11 10:19:04;;;;;;;1.20;1.03;;;13.80;89.20;;;;;;5050813;28;20902;-76
2021/03/11 10:21:31;;;;;;;1.77;1.07;;;13.80;89.50;;;;;;5052212;28;20469;-73
2021/03/11 10:23:58;;;;;;;1.20;1.07;;;13.80;89.20;;;;;;5050009;28;20450;-73
2021/03/11 10:26:26;;;;;;;1.20;1.00;;;13.80;89.10;;;;;;5051889;28;20457;-75
2021/03/11 10:29:00;;;;;;;1.70;1.33;;;13.90;89.10;;;;;;5049885;28;20462;-74
2021/03/11 10:31:28;;;;;;;1.20;1.00;;;13.90;89.20;;;;;;5051822;28;20463;-74
2021/03/11 10:34:02;;;;;;;1.20;1.00;;;14.00;89.30;;;;;;5048552;28;20548;-74
2021/03/11 10:36:29;;;;;;;1.20;1.00;;;14.00;89.00;;;;;;5051643;28;20488;-75
2021/03/11 10:39:08;;;;;;;1.20;0.90;;;14.00;88.90;;;;;;5049653;28;21192;-75
2021/03/11 10:41:38;;;;;;;1.20;1.00;;;14.00;89.30;;;;;;5051905;28;20575;-73
2021/03/11 10:44:11;;;;;;;1.30;1.10;;;14.10;89.30;;;;;;5049822;28;20497;-73
2021/03/11 10:46:38;;;;;;;1.20;1.00;;;14.10;89.40;;;;;;5051931;28;20476;-73
2021/03/11 10:49:05;;;;;;;1.20;1.00;;;14.10;89.40;;;;;;5049867;28;20458;-73
2021/03/11 10:51:32;;;;;;;1.20;1.00;;;14.00;89.60;;;;;;5052226;28;20615;-73
2021/03/11 10:54:00;;;;;;;1.20;1.00;;;14.00;89.50;;;;;;5048650;28;20826;-74
2021/03/11 10:56:27;;;;;;;1.50;1.00;;;14.10;89.50;;;;;;5051895;28;20458;-73
2021/03/11 10:59:06;;;;;;;1.20;1.00;;;14.20;89.50;;;;;;5049390;28;20531;-73
2021/03/11 11:01:34;;;;;;;1.30;1.13;;;14.20;90.00;;;;;;5051674;28;20462;-74
2021/03/11 11:04:02;;;;;;;1.40;1.10;;;14.20;90.10;;;;;;5049449;28;20453;-76
2021/03/11 11:06:30;;;;;;;1.20;1.00;;;14.20;90.40;;;;;;5051387;28;20487;-74
2021/03/11 11:08:57;;;;;;;1.20;1.00;;;14.20;90.80;;;;;;5049334;28;20458;-74
2021/03/11 11:11:24;;;;;;;1.20;1.00;;;14.10;91.20;;;;;;5051270;28;20474;-74
2021/03/11 11:13:52;;;;;;;1.20;1.00;;;14.10;91.30;;;;;;5049585;28;20513;-75
2021/03/11 11:16:19;;;;;;;1.30;1.10;;;14.10;91.80;;;;;;5051186;28;20453;-73
2021/03/11 11:18:46;;;;;;;2.13;1.30;;;14.10;92.60;;;;;;5051457;28;20501;-74
2021/03/11 11:21:13;;;;;;;1.20;1.03;;;14.10;92.80;;;;;;5051404;28;20458;-75
2021/03/11 11:23:39;;;;;;;1.30;1.10;;;14.10;93.10;;;;;;5054441;28;20451;-75
2021/03/11 11:26:10;;;;;;;1.20;1.00;;;14.10;93.80;;;;;;5062951;28;20819;-74
2021/03/11 11:28:37;;;;;;;1.20;1.00;;;14.10;95.10;;;;;;5070138;28;20464;-75
2021/03/11 11:31:03;;;;;;;1.20;1.00;;;14.00;97.80;;;;;;5069330;28;20990;-75
2021/03/11 11:33:31;;;;;;;1.20;1.00;;;14.00;97.80;;;;;;5071561;28;20503;-72
2021/03/11 11:35:58;;;;;;;1.20;1.00;;;13.90;98.00;;;;;;5070780;28;20456;-76
2021/03/11 11:38:25;;;;;;;1.20;0.90;;;13.80;98.00;;;;;;5070906;28;20461;-74
2021/03/11 11:40:51;;;;;;;1.20;1.00;;;13.70;98.00;;;;;;5068647;28;20461;-76
2021/03/11 11:43:18;;;;;;;1.20;1.00;;;13.60;98.00;;;;;;5070720;28;20464;-76
2021/03/11 11:45:45;;;;;;;1.30;1.20;;;13.50;98.00;;;;;;5068360;28;20453;-77
2021/03/11 11:48:11;;;;;;;1.20;0.90;;;13.50;98.00;;;;;;5069297;28;20529;-77
2021/03/11 11:50:39;;;;;;;1.20;1.00;;;13.30;98.00;;;;;;5068250;28;20472;-77
2021/03/11 11:53:05;;;;;;;2.90;1.20;;;13.20;98.00;;;;;;5070354;28;20455;-76
2021/03/11 11:55:32;;;;;;;1.20;1.00;;;13.10;98.00;;;;;;5068570;28;20979;-74
2021/03/11 11:57:58;;;;;;;1.20;0.90;;;13.00;98.00;;;;;;5069603;28;20470;-75
2021/03/11 12:00:26;;;;;;;1.20;1.00;;;13.00;98.00;;;;;;5068931;28;20441;-75
2021/03/11 12:02:52;;;;;;;1.20;1.00;;;13.00;98.00;;;;;;5069308;28;20474;-74
2021/03/11 12:05:20;;;;;;;1.20;0.93;;;12.90;98.00;;;;;;5070962;28;20513;-74
2021/03/11 12:07:47;;;;;;;1.20;0.90;;;12.90;98.00;;;;;;5074857;28;20449;-74
2021/03/11 12:10:16;;;;;;;1.20;0.90;;;12.80;98.00;;;;;;5072908;28;20471;-77
2021/03/11 12:12:43;;;;;;;1.20;1.00;;;12.80;98.00;;;;;;5073299;28;20547;-75
2021/03/11 12:15:10;;;;;;;1.20;1.00;;;12.80;98.00;;;;;;5072388;28;20481;-75
2021/03/11 12:17:37;;;;;;;1.20;0.90;;;12.80;98.00;;;;;;5075000;28;20982;-75
2021/03/11 12:20:05;;;;;;;1.20;1.00;;;12.80;98.00;;;;;;5072667;28;20970;-74
2021/03/11 12:22:31;;;;;;;1.20;1.00;;;12.80;98.00;;;;;;5074059;28;21105;-75
2021/03/11 12:24:58;;;;;;;1.20;0.90;;;12.90;98.00;;;;;;5072020;28;20980;-75
2021/03/11 12:27:26;;;;;;;1.20;1.00;;;12.90;98.00;;;;;;5074496;28;20806;-75
2021/03/11 12:29:53;;;;;;;1.20;0.90;;;13.00;98.00;;;;;;5070447;28;20566;-75
2021/03/11 12:32:23;;;;;;;1.40;1.20;;;13.00;98.00;;;;;;5074188;28;20456;-72
2021/03/11 12:34:50;;;;;;;1.20;0.90;;;13.10;98.00;;;;;;5071923;28;20569;-70
2021/03/11 12:37:18;;;;;;;1.20;1.00;;;13.10;98.00;;;;;;5074093;28;20462;-75
2021/03/11 12:39:45;;;;;;;1.20;1.10;;;13.20;98.00;;;;;;5072024;28;20556;-76
2021/03/11 12:42:13;;;;;;;1.20;0.90;;;13.20;98.00;;;;;;5073986;28;20931;-77
2021/03/11 12:44:39;;;;;;;1.20;0.90;;;13.30;98.00;;;;;;5071631;28;20461;-76
2021/03/11 12:47:07;;;;;;;1.20;0.90;;;13.40;98.00;;;;;;5073696;28;20844;-76
2021/03/11 12:49:33;;;;;;;1.20;0.97;;;13.50;98.00;;;;;;5071449;28;20548;-76
2021/03/11 12:52:00;;;;;;;1.20;1.00;;;13.50;98.00;;;;;;5073442;28;20449;-77
2021/03/11 12:54:26;;;;;;;1.20;0.90;;;13.50;98.00;;;;;;5071154;28;20523;-78
2021/03/11 12:56:53;;;;;;;1.60;1.30;;;13.60;98.00;;;;;;5073956;28;20483;-77
2021/03/11 12:59:20;;;;;;;1.20;1.00;;;13.60;98.00;;;;;;5071371;28;20461;-77
2021/03/11 13:01:47;;;;;;;1.20;1.00;;;13.60;98.00;;;;;;5074151;28;20877;-78
2021/03/11 13:04:13;;;;;;;1.20;1.00;;;13.60;98.00;;;;;;5071052;28;21018;-77